createdAt,value
2022-08-19T00:02:02.193Z,43.33
2022-08-19T00:04:30.720Z,45.03
2022-08-19T00:06:58.635Z,44.70
2022-08-19T00:09:25.763Z,46.80
2022-08-19T00:11:54.042Z,46.50
2022-08-19T00:14:21.819Z,45.43
2022-08-19T00:16:49.121Z,48.90
2022-08-19T00:19:16.507Z,47.47
2022-08-19T00:21:43.181Z,50.70
2022-08-19T00:24:11.164Z,52.13
2022-08-19T00:26:38.269Z,49.67
2022-08-19T00:29:05.740Z,50.93
2022-08-19T00:31:32.495Z,46.87
2022-08-19T00:33:59.370Z,48.10
2022-08-19T00:36:26.321Z,44.50
2022-08-19T00:38:53.837Z,48.10
2022-08-19T00:41:22.295Z,45.07
2022-08-19T00:44:03.280Z,41.60
2022-08-19T00:46:30.247Z,41.17
2022-08-19T00:48:58.405Z,41.70
2022-08-19T00:51:26.000Z,47.50
2022-08-19T00:53:52.703Z,51.80
2022-08-19T00:56:19.681Z,50.87
2022-08-19T00:58:46.246Z,49.40
2022-08-19T01:01:15.038Z,49.03
2022-08-19T01:03:56.770Z,49.27
2022-08-19T01:06:25.240Z,50.60
2022-08-19T01:08:52.036Z,53.07
2022-08-19T01:11:18.678Z,54.90
2022-08-19T01:13:49.815Z,52.87
2022-08-19T01:16:18.368Z,58.20
2022-08-19T01:18:45.092Z,55.37
2022-08-19T01:21:24.564Z,58.00
2022-08-19T01:23:51.691Z,55.63
2022-08-19T01:26:20.096Z,58.07
2022-08-19T01:28:48.187Z,52.70
2022-08-19T01:31:27.040Z,54.43
2022-08-19T01:33:55.869Z,53.60
2022-08-19T01:36:24.318Z,55.17
2022-08-19T01:38:50.927Z,60.63
2022-08-19T01:41:19.211Z,62.23
2022-08-19T01:44:09.938Z,62.07
2022-08-19T01:46:33.390Z,64.83
2022-08-19T01:49:00.336Z,58.77
2022-08-19T01:51:27.713Z,66.30
2022-08-19T01:53:55.419Z,62.93
2022-08-19T01:56:21.974Z,63.40
2022-08-19T01:59:08.815Z,65.50
2022-08-19T02:01:35.719Z,61.97
2022-08-19T02:04:03.245Z,60.60
2022-08-19T02:06:30.300Z,60.80
2022-08-19T02:08:57.807Z,60.07
2022-08-19T02:11:27.621Z,56.93
2022-08-19T02:13:55.052Z,58.13
2022-08-19T02:16:22.277Z,63.90
2022-08-19T02:18:51.976Z,62.17
2022-08-19T02:21:19.718Z,61.40
2022-08-19T02:23:46.802Z,62.30
2022-08-19T02:26:14.032Z,64.70
2022-08-19T02:28:41.419Z,67.10
2022-08-19T02:31:13.801Z,65.00
2022-08-19T02:33:40.427Z,75.80
2022-08-19T02:36:07.701Z,74.80
2022-08-19T02:38:34.436Z,75.03
2022-08-19T02:41:08.193Z,77.13
2022-08-19T02:43:37.380Z,77.60
2022-08-19T02:46:21.529Z,85.00
2022-08-19T02:48:50.289Z,81.97
2022-08-19T02:51:21.656Z,86.13
2022-08-19T02:53:48.584Z,80.90
2022-08-19T02:56:15.357Z,83.67
2022-08-19T02:58:42.019Z,79.13
2022-08-19T03:01:11.289Z,82.93
2022-08-19T03:03:38.747Z,86.00
2022-08-19T03:06:08.571Z,80.23
2022-08-19T03:08:35.305Z,82.00
2022-08-19T03:11:02.140Z,80.00
2022-08-19T03:13:30.164Z,77.90
2022-08-19T03:15:56.873Z,79.33
2022-08-19T03:18:23.868Z,80.40
2022-08-19T03:20:51.442Z,78.50
2022-08-19T03:23:18.094Z,79.60
2022-08-19T03:25:45.867Z,76.23
2022-08-19T03:28:13.459Z,80.17
2022-08-19T03:30:41.812Z,79.17
2022-08-19T03:33:11.002Z,77.80
2022-08-19T03:35:48.485Z,75.50
2022-08-19T03:38:15.153Z,75.70
2022-08-19T03:40:41.805Z,78.10
2022-08-19T03:43:08.433Z,79.57
2022-08-19T03:45:35.051Z,80.43
2022-08-19T03:48:01.791Z,74.97
2022-08-19T03:50:28.471Z,79.10
2022-08-19T03:52:55.045Z,75.63
2022-08-19T03:55:21.620Z,79.30
2022-08-19T03:57:49.284Z,78.27
2022-08-19T04:00:16.321Z,83.60
2022-08-19T04:02:58.811Z,80.37
2022-08-19T04:05:29.571Z,80.77
2022-08-19T04:07:59.767Z,83.40
2022-08-19T04:10:26.458Z,89.50
2022-08-19T04:12:53.280Z,89.03
2022-08-19T04:15:21.203Z,95.70
2022-08-19T04:17:47.937Z,93.83
2022-08-19T04:20:14.763Z,96.90
2022-08-19T04:22:41.388Z,94.10
2022-08-19T04:25:08.255Z,95.70
2022-08-19T04:27:35.178Z,93.87
2022-08-19T04:30:01.909Z,94.77
2022-08-19T04:32:28.524Z,95.20
2022-08-19T04:35:02.211Z,98.10
2022-08-19T04:37:44.469Z,98.80
2022-08-19T04:40:29.965Z,100.90
2022-08-19T04:42:57.386Z,101.50
2022-08-19T04:45:24.067Z,103.27
2022-08-19T04:47:58.059Z,102.47
2022-08-19T04:50:27.163Z,103.97
2022-08-19T04:52:54.334Z,105.40
2022-08-19T04:55:21.570Z,104.43
2022-08-19T04:57:48.561Z,108.73
2022-08-19T05:00:15.731Z,105.83
2022-08-19T05:02:43.197Z,111.07
2022-08-19T05:05:10.199Z,106.63
2022-08-19T05:07:37.054Z,101.00
2022-08-19T05:10:05.415Z,101.97
2022-08-19T05:12:32.205Z,104.97
2022-08-19T05:14:59.156Z,102.90
2022-08-19T05:17:28.926Z,98.20
2022-08-19T05:20:15.038Z,100.27
2022-08-19T05:22:42.637Z,103.03
2022-08-19T05:25:13.887Z,97.57
2022-08-19T05:27:41.223Z,98.27
2022-08-19T05:30:08.145Z,97.10
2022-08-19T05:32:34.993Z,87.83
2022-08-19T05:35:02.013Z,87.20
2022-08-19T05:37:28.841Z,88.20
2022-08-19T05:39:56.261Z,87.77
2022-08-19T05:42:24.027Z,87.97
2022-08-19T05:44:51.420Z,84.50
2022-08-19T05:47:20.806Z,90.10
2022-08-19T05:49:50.423Z,87.87
2022-08-19T05:52:18.861Z,84.30
2022-08-19T05:54:51.047Z,87.73
2022-08-19T05:57:19.347Z,80.77
2022-08-19T05:59:53.237Z,82.10
2022-08-19T06:02:24.793Z,80.93
2022-08-19T06:04:51.405Z,72.17
2022-08-19T06:07:18.012Z,74.67
2022-08-19T06:09:59.015Z,73.30
2022-08-19T06:12:33.897Z,71.87
2022-08-19T06:15:06.114Z,73.80
2022-08-19T06:17:32.861Z,75.50
2022-08-19T06:19:59.867Z,73.67
2022-08-19T06:22:26.982Z,77.37
2022-08-19T06:24:54.901Z,73.40
2022-08-19T06:27:22.216Z,75.27
2022-08-19T06:29:49.043Z,80.80
2022-08-19T06:32:17.408Z,72.70
2022-08-19T06:34:44.790Z,69.30
2022-08-19T06:37:12.022Z,65.17
2022-08-19T06:39:40.087Z,70.03
2022-08-19T06:42:10.921Z,66.87
2022-08-19T06:44:42.839Z,68.17
2022-08-19T06:47:14.746Z,63.63
2022-08-19T06:49:52.052Z,66.57
2022-08-19T06:52:20.855Z,62.77
2022-08-19T06:54:56.095Z,63.63
2022-08-19T06:57:27.034Z,61.37
2022-08-19T06:59:54.101Z,58.93
2022-08-19T07:02:21.696Z,57.80
2022-08-19T07:04:48.759Z,54.03
2022-08-19T07:07:22.006Z,51.73
2022-08-19T07:10:09.818Z,52.90
2022-08-19T07:12:38.187Z,54.30
2022-08-19T07:15:05.902Z,52.07
2022-08-19T07:17:34.399Z,47.53
2022-08-19T07:20:05.373Z,43.47
2022-08-19T07:22:36.854Z,48.90
2022-08-19T07:25:04.683Z,44.53
2022-08-19T07:27:33.659Z,41.83
2022-08-19T07:30:00.494Z,40.40
2022-08-19T07:32:27.929Z,39.47
2022-08-19T07:34:56.377Z,40.70
2022-08-19T07:37:27.367Z,36.80
2022-08-19T07:39:56.373Z,33.67
2022-08-19T07:42:23.159Z,36.80
2022-08-19T07:44:50.623Z,33.60
2022-08-19T07:47:47.415Z,34.93
2022-08-19T07:50:07.755Z,32.33
2022-08-19T07:52:36.910Z,34.17
2022-08-19T07:55:04.933Z,31.97
2022-08-19T07:57:31.784Z,31.80
2022-08-19T07:59:58.578Z,32.90
2022-08-19T08:02:25.524Z,35.23
2022-08-19T08:05:11.090Z,33.40
2022-08-19T08:07:56.636Z,32.83
2022-08-19T08:10:24.771Z,35.90
2022-08-19T08:13:09.479Z,36.10
2022-08-19T08:15:43.143Z,33.00
2022-08-19T08:18:11.180Z,30.73
2022-08-19T08:20:40.228Z,29.03
2022-08-19T08:23:25.649Z,28.50
2022-08-19T08:25:53.427Z,33.50
2022-08-19T08:28:20.235Z,34.70
2022-08-19T08:30:49.141Z,34.20
2022-08-19T08:33:33.991Z,37.67
2022-08-19T08:36:08.668Z,33.20
2022-08-19T08:38:40.156Z,38.67
2022-08-19T08:41:28.999Z,31.43
2022-08-19T08:43:58.247Z,33.80
2022-08-19T08:46:30.888Z,33.80
2022-08-19T08:49:09.736Z,34.90
2022-08-19T08:51:59.466Z,33.23
2022-08-19T08:54:31.489Z,34.37
2022-08-19T08:57:00.666Z,37.67
2022-08-19T08:59:33.479Z,33.47
2022-08-19T09:02:01.113Z,33.53
2022-08-19T09:04:28.928Z,31.13
2022-08-19T09:06:55.941Z,30.67
2022-08-19T09:09:35.958Z,31.07
2022-08-19T09:12:29.467Z,27.63
2022-08-19T09:15:00.866Z,24.53
2022-08-19T09:17:32.073Z,27.53
2022-08-19T09:20:05.568Z,30.43
2022-08-19T09:22:33.934Z,31.23
2022-08-19T09:25:01.306Z,28.70
2022-08-19T09:27:42.462Z,26.30
2022-08-19T09:30:12.483Z,26.43
2022-08-19T09:32:40.167Z,25.00
2022-08-19T09:35:08.828Z,28.20
2022-08-19T09:37:37.648Z,27.60
2022-08-19T09:40:04.740Z,26.53
2022-08-19T09:42:35.394Z,26.60
2022-08-19T09:45:05.054Z,28.37
2022-08-19T09:47:33.515Z,24.20
2022-08-19T09:50:00.293Z,20.57
2022-08-19T09:52:32.850Z,19.77
2022-08-19T09:55:00.292Z,22.40
2022-08-19T09:57:27.297Z,18.90
2022-08-19T09:59:54.616Z,19.53
2022-08-19T10:02:22.278Z,23.40
2022-08-19T10:05:07.819Z,22.80
2022-08-19T10:07:36.473Z,20.90
2022-08-19T10:10:04.915Z,18.60
2022-08-19T10:12:31.915Z,22.50
2022-08-19T10:14:58.630Z,21.20
2022-08-19T10:17:27.365Z,23.37
2022-08-19T10:19:58.145Z,19.73
2022-08-19T10:22:25.707Z,21.60
2022-08-19T10:24:53.824Z,21.03
2022-08-19T10:27:20.595Z,22.47
2022-08-19T10:29:48.980Z,21.70
2022-08-19T10:32:15.706Z,26.00
2022-08-19T10:34:48.462Z,26.27
2022-08-19T10:37:22.848Z,27.33
2022-08-19T10:39:53.754Z,21.73
2022-08-19T10:42:49.854Z,25.80
2022-08-19T10:45:17.615Z,22.20
2022-08-19T10:47:44.512Z,25.20
2022-08-19T10:50:32.120Z,22.33
2022-08-19T10:52:58.826Z,22.00
2022-08-19T10:55:45.172Z,20.00
2022-08-19T10:58:17.664Z,22.00
2022-08-19T11:00:44.990Z,26.10
2022-08-19T11:03:11.938Z,22.73
2022-08-19T11:05:40.012Z,20.80
2022-08-19T11:08:23.000Z,19.53
2022-08-19T11:11:01.767Z,19.17
2022-08-19T11:13:34.494Z,21.07
2022-08-19T11:16:07.063Z,20.03
2022-08-19T11:18:39.288Z,19.70
2022-08-19T11:21:13.833Z,19.10
2022-08-19T11:23:41.208Z,16.87
2022-08-19T11:26:08.065Z,16.50
2022-08-19T11:28:35.061Z,15.73
2022-08-19T11:31:04.230Z,14.80
2022-08-19T11:33:31.657Z,18.37
2022-08-19T11:36:00.349Z,16.10
2022-08-19T11:38:27.702Z,13.90
2022-08-19T11:41:01.850Z,15.60
2022-08-19T11:43:29.467Z,16.90
2022-08-19T11:45:56.740Z,17.97
2022-08-19T11:48:24.295Z,17.60
2022-08-19T11:50:51.367Z,19.60
2022-08-19T11:53:21.846Z,16.73
2022-08-19T11:55:49.094Z,16.93
2022-08-19T11:58:18.874Z,19.10
2022-08-19T12:00:47.271Z,13.27
2022-08-19T12:03:14.174Z,13.00
2022-08-19T12:05:41.715Z,15.03
2022-08-19T12:08:09.522Z,15.43
2022-08-19T12:10:39.587Z,11.53
2022-08-19T12:13:07.651Z,10.53
2022-08-19T12:15:38.749Z,14.80
2022-08-19T12:18:05.718Z,13.50
2022-08-19T12:20:37.683Z,13.20
2022-08-19T12:23:05.587Z,18.67
2022-08-19T12:25:34.794Z,18.80
2022-08-19T12:28:01.801Z,16.00
2022-08-19T12:30:30.021Z,10.87
2022-08-19T12:32:58.594Z,11.80
2022-08-19T12:35:25.815Z,11.07
2022-08-19T12:37:56.851Z,10.37
2022-08-19T12:40:26.409Z,9.83
2022-08-19T12:42:54.523Z,9.73
2022-08-19T12:45:21.508Z,8.27
2022-08-19T12:47:49.583Z,7.50
2022-08-19T12:50:17.069Z,9.70
2022-08-19T12:52:44.043Z,10.80
2022-08-19T12:55:12.358Z,8.67
2022-08-19T12:57:39.326Z,8.13
2022-08-19T13:00:14.823Z,7.20
2022-08-19T13:02:42.462Z,5.60
2022-08-19T13:05:12.118Z,6.10
2022-08-19T13:07:40.733Z,6.77
2022-08-19T13:10:09.008Z,7.20
2022-08-19T13:12:36.146Z,4.87
2022-08-19T13:15:03.195Z,4.60
2022-08-19T13:17:37.596Z,6.20
2022-08-19T13:20:05.945Z,4.70
2022-08-19T13:22:39.271Z,5.00
2022-08-19T13:25:07.147Z,5.67
2022-08-19T13:27:33.866Z,4.37
2022-08-19T13:30:19.438Z,4.80
2022-08-19T13:33:09.415Z,4.20
2022-08-19T13:35:36.246Z,4.27
2022-08-19T13:38:05.798Z,3.80
2022-08-19T13:40:39.898Z,4.07
2022-08-19T13:43:17.586Z,2.80
2022-08-19T13:45:54.929Z,3.47
2022-08-19T13:48:21.805Z,3.20
2022-08-19T13:50:49.193Z,3.90
2022-08-19T13:53:16.451Z,3.27
2022-08-19T13:55:44.099Z,3.33
2022-08-19T13:58:11.639Z,2.60
2022-08-19T14:00:40.562Z,3.13
2022-08-19T14:03:10.679Z,3.37
2022-08-19T14:05:42.973Z,3.57
2022-08-19T14:08:10.276Z,3.00
2022-08-19T14:10:37.266Z,3.80
2022-08-19T14:13:04.717Z,3.80
2022-08-19T14:15:31.902Z,2.80
2022-08-19T14:17:58.755Z,3.00
2022-08-19T14:20:26.469Z,3.00
2022-08-19T14:22:54.627Z,2.90
2022-08-19T14:25:22.981Z,2.70
2022-08-19T14:27:50.106Z,3.10
2022-08-19T14:30:19.039Z,2.90
2022-08-19T14:32:48.924Z,2.20
2022-08-19T14:35:17.220Z,2.30
2022-08-19T14:37:46.168Z,2.23
2022-08-19T14:40:17.683Z,1.90
2022-08-19T14:42:44.731Z,1.47
2022-08-19T14:45:12.194Z,1.57
2022-08-19T14:47:39.854Z,1.60
2022-08-19T14:50:10.392Z,2.10
2022-08-19T14:52:44.918Z,1.57
2022-08-19T14:55:16.135Z,2.27
2022-08-19T14:57:46.092Z,2.27
2022-08-19T15:00:14.213Z,1.73
2022-08-19T15:02:41.813Z,1.90
2022-08-19T15:05:09.274Z,1.53
2022-08-19T15:07:36.104Z,1.50
2022-08-19T15:10:03.874Z,1.60
2022-08-19T15:12:35.144Z,1.47
2022-08-19T15:15:05.928Z,1.53
2022-08-19T15:17:45.132Z,2.37
2022-08-19T15:20:14.619Z,2.20
2022-08-19T15:22:42.259Z,2.10
2022-08-19T15:25:11.657Z,2.30
2022-08-19T15:27:39.752Z,2.27
2022-08-19T15:30:10.202Z,2.10
2022-08-19T15:32:37.984Z,2.47
2022-08-19T15:35:06.948Z,1.90
2022-08-19T15:37:37.000Z,2.87
2022-08-19T15:40:09.752Z,3.20
2022-08-19T15:42:37.624Z,3.33
2022-08-19T15:45:05.874Z,3.90
2022-08-19T15:47:38.546Z,2.97
2022-08-19T15:50:11.033Z,2.93
2022-08-19T15:52:50.325Z,3.03
2022-08-19T15:55:33.736Z,3.23
2022-08-19T15:58:28.345Z,2.50
2022-08-19T16:01:27.058Z,2.80
2022-08-19T16:04:17.562Z,2.60
2022-08-19T16:06:52.067Z,2.20
2022-08-19T16:09:23.660Z,2.20
2022-08-19T16:11:56.870Z,3.17
2022-08-19T16:14:26.580Z,2.50
2022-08-19T16:16:57.002Z,2.17
2022-08-19T16:19:26.215Z,2.33
2022-08-19T16:21:56.029Z,2.10
2022-08-19T16:24:24.109Z,2.60
2022-08-19T16:26:50.914Z,2.37
2022-08-19T16:29:34.275Z,2.77
2022-08-19T16:32:03.472Z,3.60
2022-08-19T16:34:30.241Z,2.27
2022-08-19T16:36:57.074Z,2.73
2022-08-19T16:39:23.926Z,2.67
2022-08-19T16:41:51.731Z,2.40
2022-08-19T16:44:19.480Z,2.70
2022-08-19T16:46:57.338Z,2.93
2022-08-19T16:49:52.116Z,2.27
2022-08-19T16:52:14.802Z,3.07
2022-08-19T16:54:43.684Z,3.07
2022-08-19T16:57:16.385Z,2.90
2022-08-19T16:59:49.031Z,3.13
2022-08-19T17:02:17.592Z,3.57
2022-08-19T17:04:44.825Z,2.97
2022-08-19T17:07:25.440Z,3.20
2022-08-19T17:09:52.520Z,2.40
2022-08-19T17:12:21.362Z,3.13
2022-08-19T17:14:48.673Z,2.60
2022-08-19T17:17:16.144Z,3.20
2022-08-19T17:19:44.690Z,2.33
2022-08-19T17:22:13.001Z,2.70
2022-08-19T17:24:40.921Z,2.47
2022-08-19T17:27:09.220Z,2.40
2022-08-19T17:29:36.392Z,2.60
2022-08-19T17:32:05.497Z,1.90
2022-08-19T17:34:33.679Z,1.80
2022-08-19T17:37:00.596Z,2.00
2022-08-19T17:39:27.606Z,2.23
2022-08-19T17:41:54.421Z,2.67
2022-08-19T17:44:23.602Z,2.10
2022-08-19T17:46:53.540Z,3.30
2022-08-19T17:49:20.802Z,2.37
2022-08-19T17:51:51.722Z,2.33
2022-08-19T17:54:19.794Z,2.97
2022-08-19T17:56:47.283Z,2.33
2022-08-19T17:59:14.834Z,2.30
2022-08-19T18:01:53.630Z,3.03
2022-08-19T18:04:22.208Z,2.40
2022-08-19T18:06:53.095Z,2.40
2022-08-19T18:09:41.582Z,2.13
2022-08-19T18:12:10.934Z,2.53
2022-08-19T18:14:39.382Z,2.90
2022-08-19T18:17:10.337Z,3.57
2022-08-19T18:19:43.002Z,3.50
2022-08-19T18:22:22.664Z,3.50
2022-08-19T18:24:49.628Z,3.40
2022-08-19T18:27:16.520Z,3.40
2022-08-19T18:29:43.619Z,3.20
2022-08-19T18:32:13.823Z,3.57
2022-08-19T18:34:42.517Z,2.87
2022-08-19T18:37:14.350Z,3.43
2022-08-19T18:40:00.481Z,3.67
2022-08-19T18:42:46.296Z,3.00
2022-08-19T18:45:31.934Z,2.57
2022-08-19T18:48:26.366Z,3.90
2022-08-19T18:50:58.747Z,3.60
2022-08-19T18:53:27.174Z,3.53
2022-08-19T18:55:55.756Z,3.13
2022-08-19T18:58:28.512Z,3.83
2022-08-19T19:00:57.184Z,2.63
2022-08-19T19:03:27.475Z,2.33
2022-08-19T19:05:54.179Z,7.40
2022-08-19T19:08:27.194Z,5.57
2022-08-19T19:10:54.855Z,7.50
2022-08-19T19:13:21.743Z,5.90
2022-08-19T19:15:48.674Z,7.60
2022-08-19T19:18:15.389Z,7.73
2022-08-19T19:20:43.107Z,7.53
2022-08-19T19:23:09.808Z,8.27
2022-08-19T19:25:50.373Z,7.93
2022-08-19T19:28:29.048Z,7.20
2022-08-19T19:30:58.773Z,5.83
2022-08-19T19:33:26.152Z,6.30
2022-08-19T19:35:53.109Z,7.37
2022-08-19T19:38:19.872Z,6.40
2022-08-19T19:40:46.610Z,7.80
2022-08-19T19:43:13.352Z,8.50
2022-08-19T19:45:40.118Z,8.70
2022-08-19T19:48:08.375Z,8.90
2022-08-19T19:50:35.058Z,8.80
2022-08-19T19:53:01.999Z,10.40
2022-08-19T19:55:29.196Z,10.17
2022-08-19T19:57:57.766Z,9.03
2022-08-19T20:00:25.206Z,9.30
2022-08-19T20:02:56.041Z,8.53
2022-08-19T20:05:23.190Z,8.40
2022-08-19T20:08:09.176Z,10.67
2022-08-19T20:10:36.869Z,10.07
2022-08-19T20:13:04.611Z,10.17
2022-08-19T20:15:32.334Z,9.30
2022-08-19T20:18:02.672Z,9.33
2022-08-19T20:20:30.492Z,9.27
2022-08-19T20:22:58.348Z,10.90
2022-08-19T20:25:25.177Z,9.33
2022-08-19T20:27:51.959Z,8.30
2022-08-19T20:30:20.784Z,10.30
2022-08-19T20:32:48.545Z,9.57
2022-08-19T20:35:20.543Z,11.37
2022-08-19T20:37:47.689Z,9.83
2022-08-19T20:40:15.177Z,11.90
2022-08-19T20:42:43.078Z,10.80
2022-08-19T20:45:32.358Z,10.33
2022-08-19T20:47:58.634Z,11.07
2022-08-19T20:50:26.045Z,10.97
2022-08-19T20:52:57.164Z,10.93
2022-08-19T20:55:23.796Z,9.87
2022-08-19T20:57:51.746Z,12.73
2022-08-19T21:00:19.511Z,11.40
2022-08-19T21:02:47.074Z,12.50
2022-08-19T21:05:14.048Z,11.13
2022-08-19T21:07:41.067Z,10.77
2022-08-19T21:10:07.965Z,12.20
2022-08-19T21:12:34.755Z,13.33
2022-08-19T21:15:01.720Z,12.97
2022-08-19T21:17:29.078Z,13.97
2022-08-19T21:19:55.910Z,13.30
2022-08-19T21:22:22.712Z,14.90
2022-08-19T21:24:49.567Z,14.40
2022-08-19T21:27:16.309Z,14.90
2022-08-19T21:29:43.496Z,15.40
2022-08-19T21:32:14.150Z,15.77
2022-08-19T21:34:43.819Z,17.03
2022-08-19T21:37:14.773Z,18.70
2022-08-19T21:39:53.689Z,17.40
2022-08-19T21:42:20.722Z,19.03
2022-08-19T21:44:47.678Z,18.37
2022-08-19T21:47:14.500Z,19.20
2022-08-19T21:49:41.334Z,19.37
2022-08-19T21:52:08.303Z,19.67
2022-08-19T21:54:37.617Z,20.20
2022-08-19T21:57:10.094Z,18.07
2022-08-19T21:59:41.124Z,18.30
2022-08-19T22:02:19.877Z,18.60
2022-08-19T22:04:48.358Z,18.63
2022-08-19T22:07:15.644Z,19.80
2022-08-19T22:09:43.115Z,20.07
2022-08-19T22:12:10.927Z,20.03
2022-08-19T22:14:38.413Z,19.50
2022-08-19T22:17:05.946Z,18.47
2022-08-19T22:19:33.403Z,20.70
2022-08-19T22:22:00.682Z,16.93
2022-08-19T22:24:27.678Z,16.17
2022-08-19T22:26:54.478Z,17.43
2022-08-19T22:29:25.836Z,16.43
2022-08-19T22:32:26.376Z,16.53
2022-08-19T22:34:48.955Z,16.40
2022-08-19T22:37:15.767Z,17.40
2022-08-19T22:39:43.365Z,17.13
2022-08-19T22:42:11.509Z,16.03
2022-08-19T22:44:38.446Z,15.63
2022-08-19T22:47:05.330Z,16.30
2022-08-19T22:49:32.134Z,14.90
2022-08-19T22:52:17.931Z,14.57
2022-08-19T22:54:49.144Z,15.80
2022-08-19T22:57:16.603Z,16.00
2022-08-19T22:59:44.309Z,15.70
2022-08-19T23:02:11.871Z,14.33
2022-08-19T23:04:38.448Z,13.20
2022-08-19T23:07:05.485Z,14.63
2022-08-19T23:09:32.373Z,14.20
2022-08-19T23:12:00.581Z,19.73
2022-08-19T23:14:27.305Z,20.27
2022-08-19T23:16:58.371Z,21.10
2022-08-19T23:19:25.569Z,25.20
2022-08-19T23:21:52.581Z,26.23
2022-08-19T23:24:19.210Z,26.80
2022-08-19T23:27:04.510Z,23.67
2022-08-19T23:29:49.718Z,27.20
2022-08-19T23:32:17.301Z,23.73
2022-08-19T23:34:44.278Z,24.77
2022-08-19T23:37:10.937Z,25.93
2022-08-19T23:39:37.553Z,25.43
2022-08-19T23:42:15.118Z,24.10
2022-08-19T23:44:52.065Z,30.03
2022-08-19T23:47:19.720Z,27.20
2022-08-19T23:49:47.010Z,28.03
2022-08-19T23:52:13.660Z,25.60
2022-08-19T23:54:43.503Z,27.97
2022-08-19T23:57:13.769Z,25.80
2022-08-19T23:59:42.882Z,31.07
